SECU/CUE METAR and TAF weather

Enter ICAO airport designator
Station Type Date Time Source
SECU METAR 2020/09/27 03:00 UTC NOAA

SECU 270300Z AUTO 22003KT 170V320 ////NDV ////// 11/07 Q1027


Station Type Date Time Source
SECU Decoded METAR 2020/09/27 03:00 UTC NOAA

Cuenca / Mariscal Lamar, Ecuador (SECU) 02-53S 078-59W 2531M
Sep 26, 2020 - 11:00 PM EDT / 2020.09.27 0300 UTC
Wind: from the SW (220 degrees) at 3 MPH (3 KT) (direction variable):0
Temperature: 51 F (11 C)
Dew Point: 44 F (7 C)
Relative Humidity: 76%
Pressure (altimeter): 30.33 in. Hg (1027 hPa)
ob: SECU 270300Z AUTO 22003KT 170V320 ////NDV ////// 11/07 Q1027
cycle: 3

Station Type Date Time Source
SECU TAF 2019/10/28 06:45 UTC NOAA

TAF SECU 280435Z 2806/2906 VRB03KT 9999 FEW010 BKN033
BECMG 2814/2815 05005KT BKN040 BKN100 TX20/2819Z TN12/2811Z

Example: see airport list